createdAt,value
2022-10-17T00:03:58.949Z,10.40
2022-10-17T00:08:57.810Z,16.70
2022-10-17T00:13:57.228Z,14.65
2022-10-17T00:18:56.192Z,9.32
2022-10-17T00:23:58.025Z,11.57
2022-10-17T00:28:59.970Z,9.23
2022-10-17T00:33:58.508Z,6.70
2022-10-17T00:39:02.218Z,8.15
2022-10-17T00:44:25.300Z,7.88
2022-10-17T00:49:52.322Z,7.80
2022-10-17T00:55:08.900Z,16.20
2022-10-17T01:00:34.544Z,7.05
2022-10-17T01:05:58.721Z,6.17
2022-10-17T01:11:29.901Z,6.55
2022-10-17T01:17:00.812Z,4.97
2022-10-17T01:22:45.483Z,5.93
2022-10-17T01:28:04.077Z,11.10
2022-10-17T01:33:14.322Z,9.30
2022-10-17T01:38:33.635Z,9.82
2022-10-17T01:43:56.628Z,8.60
2022-10-17T01:48:57.013Z,9.02
2022-10-17T01:54:17.850Z,8.68
2022-10-17T01:59:30.655Z,13.43
2022-10-17T02:04:29.159Z,12.93
2022-10-17T02:09:30.568Z,9.13
2022-10-17T02:14:44.216Z,11.50
2022-10-17T02:20:05.612Z,8.13
2022-10-17T02:25:14.448Z,8.60
2022-10-17T02:30:16.879Z,12.63
2022-10-17T02:35:16.053Z,13.10
2022-10-17T02:40:15.838Z,12.50
2022-10-17T02:45:14.497Z,12.55
2022-10-17T02:50:13.676Z,8.95
2022-10-17T02:55:28.320Z,16.02
2022-10-17T03:00:28.557Z,12.85
2022-10-17T03:05:29.766Z,9.10
2022-10-17T03:10:28.346Z,10.07
2022-10-17T03:15:29.573Z,10.02
2022-10-17T03:20:28.265Z,10.80
2022-10-17T03:25:26.684Z,9.88
2022-10-17T03:30:30.530Z,11.18
2022-10-17T03:35:31.160Z,11.10
2022-10-17T03:40:37.108Z,12.10
2022-10-17T03:45:39.031Z,11.65
2022-10-17T03:50:38.933Z,15.30
2022-10-17T03:55:39.200Z,13.38
2022-10-17T04:00:43.237Z,11.50
2022-10-17T04:10:42.480Z,12.80
2022-10-17T04:15:55.550Z,15.50
2022-10-17T04:20:54.225Z,11.13
2022-10-17T04:25:59.318Z,10.27
2022-10-17T04:31:05.073Z,9.65
2022-10-17T04:36:16.003Z,11.20
2022-10-17T04:41:16.420Z,10.82
2022-10-17T04:46:16.428Z,19.05
2022-10-17T04:51:26.505Z,21.23
2022-10-17T04:56:45.267Z,12.52
2022-10-17T05:01:43.913Z,9.85
2022-10-17T05:06:42.507Z,21.25
2022-10-17T05:12:13.419Z,13.70
2022-10-17T05:17:14.958Z,20.48
2022-10-17T05:22:14.607Z,14.18
2022-10-17T05:27:15.022Z,11.77
2022-10-17T05:32:15.863Z,18.17
2022-10-17T05:37:16.846Z,21.38
2022-10-17T05:42:28.432Z,18.73
2022-10-17T05:47:32.370Z,18.38
2022-10-17T05:52:33.505Z,19.77
2022-10-17T05:58:03.048Z,15.40
2022-10-17T06:03:16.819Z,18.88
2022-10-17T06:08:17.305Z,19.45
2022-10-17T06:13:17.099Z,22.52
2022-10-17T06:18:19.311Z,20.45
2022-10-17T06:23:19.201Z,16.33
2022-10-17T06:28:32.676Z,25.77
2022-10-17T06:33:33.834Z,25.73
2022-10-17T06:38:37.130Z,18.13
2022-10-17T06:43:42.458Z,23.17
2022-10-17T06:49:17.405Z,17.63
2022-10-17T06:54:35.022Z,21.98
2022-10-17T06:59:58.790Z,24.85
2022-10-17T07:05:09.224Z,15.65
2022-10-17T07:10:12.234Z,20.63
2022-10-17T07:15:14.170Z,21.00
2022-10-17T07:20:15.090Z,22.08
2022-10-17T07:25:13.170Z,27.60
2022-10-17T07:30:20.787Z,22.65
2022-10-17T07:35:25.752Z,15.45
2022-10-17T07:40:28.377Z,20.25
2022-10-17T07:45:27.978Z,24.42
2022-10-17T07:50:27.891Z,18.50
2022-10-17T07:55:29.017Z,16.73
2022-10-17T08:00:30.423Z,16.23
2022-10-17T08:05:33.345Z,17.13
2022-10-17T08:10:32.398Z,17.40
2022-10-17T08:15:32.341Z,17.63
2022-10-17T08:20:33.445Z,22.58
2022-10-17T08:25:35.246Z,22.70
2022-10-17T08:30:35.385Z,18.13
2022-10-17T08:35:34.592Z,24.60
2022-10-17T08:40:36.740Z,18.75
2022-10-17T08:45:47.493Z,21.98
2022-10-17T08:50:51.170Z,20.77
2022-10-17T08:55:53.670Z,13.35
2022-10-17T09:00:59.901Z,16.35
2022-10-17T09:06:22.879Z,17.95
2022-10-17T09:11:39.842Z,11.80
2022-10-17T09:17:03.083Z,17.13
2022-10-17T09:22:15.460Z,9.32
2022-10-17T09:27:35.151Z,10.90
2022-10-17T09:32:44.224Z,4.85
2022-10-17T09:37:42.752Z,6.15
2022-10-17T09:42:47.453Z,4.88
2022-10-17T09:48:09.273Z,7.50
2022-10-17T09:53:42.010Z,3.03
2022-10-17T09:58:46.499Z,4.60
2022-10-17T10:03:45.837Z,5.07
2022-10-17T10:08:55.471Z,4.63
2022-10-17T10:13:55.065Z,5.68
2022-10-17T10:18:56.150Z,5.97
2022-10-17T10:24:30.326Z,9.52
2022-10-17T10:29:41.842Z,8.50
2022-10-17T10:34:51.100Z,5.43
2022-10-17T10:40:04.034Z,3.75
2022-10-17T10:50:47.535Z,6.53
2022-10-17T10:55:55.229Z,4.53
2022-10-17T11:00:54.695Z,7.60
2022-10-17T11:06:23.962Z,8.75
2022-10-17T11:11:39.426Z,10.30
2022-10-17T11:17:08.956Z,5.18
2022-10-17T11:22:17.483Z,4.05
2022-10-17T11:27:15.293Z,8.07
2022-10-17T11:32:23.633Z,5.63
2022-10-17T11:37:25.998Z,4.53
2022-10-17T11:42:31.163Z,12.30
2022-10-17T11:47:38.203Z,8.30
2022-10-17T11:52:55.462Z,4.95
2022-10-17T11:58:09.651Z,8.70
2022-10-17T12:03:46.100Z,3.92
2022-10-17T12:08:52.546Z,4.28
2022-10-17T12:13:57.227Z,4.97
2022-10-17T12:19:03.797Z,5.57
2022-10-17T12:24:02.147Z,4.28
2022-10-17T12:29:00.603Z,3.63
2022-10-17T12:34:19.800Z,4.97
2022-10-17T12:39:20.435Z,1.90
2022-10-17T12:44:21.895Z,2.25
2022-10-17T12:49:22.374Z,2.70
2022-10-17T12:54:26.080Z,3.95
2022-10-17T12:59:29.061Z,3.97
2022-10-17T13:04:27.308Z,7.47
2022-10-17T13:09:30.805Z,4.13
2022-10-17T13:14:31.311Z,2.60
2022-10-17T13:19:44.241Z,2.78
2022-10-17T13:24:44.038Z,6.23
2022-10-17T13:29:44.836Z,3.13
2022-10-17T13:34:45.041Z,2.35
2022-10-17T13:40:00.320Z,4.30
2022-10-17T13:50:43.060Z,3.50
2022-10-17T13:56:26.230Z,6.35
2022-10-17T14:01:24.710Z,5.10
2022-10-17T14:06:26.386Z,24.33
2022-10-17T14:11:38.508Z,3.13
2022-10-17T14:16:41.359Z,9.35
2022-10-17T14:21:44.506Z,3.40
2022-10-17T14:26:51.045Z,9.60
2022-10-17T14:32:04.732Z,4.10
2022-10-17T14:37:14.018Z,4.78
2022-10-17T14:42:25.453Z,5.78
2022-10-17T14:47:43.264Z,5.97
2022-10-17T14:53:24.680Z,8.07
2022-10-17T14:58:32.332Z,13.30
2022-10-17T15:03:33.600Z,7.90
2022-10-17T15:08:34.455Z,4.35
2022-10-17T15:13:39.223Z,42.38
2022-10-17T15:18:48.960Z,58.55
2022-10-17T15:23:52.869Z,16.73
2022-10-17T15:34:05.702Z,7.53
2022-10-17T15:39:05.554Z,14.02
2022-10-17T15:44:06.786Z,16.17
2022-10-17T15:49:15.267Z,13.88
2022-10-17T15:54:15.867Z,14.45
2022-10-17T15:59:24.525Z,16.90
2022-10-17T16:04:28.487Z,18.58
2022-10-17T16:14:34.889Z,17.77
2022-10-17T16:19:36.260Z,20.23
2022-10-17T16:24:39.091Z,25.58
2022-10-17T16:29:47.648Z,45.17
2022-10-17T16:34:48.895Z,33.90
2022-10-17T16:40:01.617Z,37.33
2022-10-17T16:45:52.708Z,38.47
2022-10-17T16:50:56.374Z,29.65
2022-10-17T16:56:10.128Z,29.88
2022-10-17T17:01:21.959Z,28.77
2022-10-17T17:11:51.924Z,37.80
2022-10-17T17:16:59.917Z,32.60
2022-10-17T17:22:05.608Z,29.10
2022-10-17T17:27:33.079Z,38.15
2022-10-17T17:38:37.359Z,36.28
2022-10-17T17:43:37.862Z,31.95
2022-10-17T17:48:44.608Z,34.05
2022-10-17T17:54:39.992Z,37.63
2022-10-17T17:59:50.708Z,29.58
2022-10-17T18:05:17.177Z,36.38
2022-10-17T18:10:33.910Z,27.50
2022-10-17T18:15:36.232Z,25.02
2022-10-17T18:20:51.392Z,28.15
2022-10-17T18:26:02.597Z,27.48
2022-10-17T18:31:46.038Z,26.83
2022-10-17T18:36:48.723Z,25.13
2022-10-17T18:42:02.304Z,30.77
2022-10-17T18:47:15.341Z,25.40
2022-10-17T18:52:25.723Z,19.27
2022-10-17T18:57:27.886Z,21.65
2022-10-17T19:02:32.137Z,25.58
2022-10-17T19:07:37.182Z,27.38
2022-10-17T19:12:37.647Z,25.05
2022-10-17T19:17:36.776Z,22.70
2022-10-17T19:22:37.210Z,34.67
2022-10-17T19:27:42.041Z,25.00
2022-10-17T19:32:44.428Z,28.27
2022-10-17T19:37:48.365Z,27.65
2022-10-17T19:42:48.389Z,21.08
2022-10-17T19:47:54.781Z,27.10
2022-10-17T19:53:00.162Z,27.58
2022-10-17T19:58:01.491Z,36.42
2022-10-17T20:03:20.561Z,24.55
2022-10-17T20:08:29.614Z,22.00
2022-10-17T20:13:29.995Z,18.67
2022-10-17T20:18:32.299Z,18.05
2022-10-17T20:23:30.323Z,21.58
2022-10-17T20:28:33.753Z,20.30
2022-10-17T20:33:32.188Z,29.42
2022-10-17T20:38:30.176Z,28.65
2022-10-17T20:43:28.357Z,25.23
2022-10-17T20:48:26.782Z,22.83
2022-10-17T20:53:35.974Z,37.78
2022-10-17T20:58:36.110Z,30.63
2022-10-17T21:03:42.342Z,36.33
2022-10-17T21:08:48.665Z,34.13
2022-10-17T21:13:49.710Z,47.00
2022-10-17T21:18:51.512Z,36.15
2022-10-17T21:23:52.691Z,36.10
2022-10-17T21:28:51.851Z,31.30
2022-10-17T21:33:56.478Z,21.10
2022-10-17T21:38:56.742Z,16.20
2022-10-17T21:44:07.837Z,19.58
2022-10-17T21:49:11.097Z,29.13
2022-10-17T21:54:12.024Z,16.80
2022-10-17T21:59:15.341Z,12.38
2022-10-17T22:04:18.482Z,6.82
2022-10-17T22:09:23.741Z,9.00
2022-10-17T22:14:24.997Z,7.38
2022-10-17T22:19:26.539Z,9.60
2022-10-17T22:24:28.597Z,10.30
2022-10-17T22:29:28.287Z,8.63
2022-10-17T22:34:32.486Z,8.80
2022-10-17T22:39:33.558Z,7.70
2022-10-17T22:44:33.613Z,8.15
2022-10-17T22:49:45.058Z,11.65
2022-10-17T22:54:53.244Z,7.77
2022-10-17T23:00:05.943Z,10.18
2022-10-17T23:05:10.670Z,11.45
2022-10-17T23:10:13.523Z,9.52
2022-10-17T23:15:12.420Z,9.32
2022-10-17T23:20:12.633Z,12.00
2022-10-17T23:25:14.397Z,12.25
2022-10-17T23:30:16.648Z,12.70
2022-10-17T23:35:19.580Z,12.15
2022-10-17T23:40:22.015Z,9.80
2022-10-17T23:45:24.294Z,14.95
2022-10-17T23:50:25.965Z,16.00
2022-10-17T23:55:27.139Z,9.77
